Time;durP1;ratioP1;P1;durP2;ratioP2;P2;SDS_P1;SDS_P2;PMS_P1;PMS_P2;Temp;Humidity;BMP_temperature;BMP_pressure;BME280_temperature;BME280_humidity;BME280_pressure;Samples;Min_cycle;Max_cycle;Signal;HPM_P1;HPM_P2
2023/05/10 00:00:12;;;;;;;4.43;3.28;;;12.80;99.90;;;;;;5074365;28;20136;-59
2023/05/10 00:02:38;;;;;;;3.83;3.40;;;12.80;99.90;;;;;;5077478;28;20052;-58
2023/05/10 00:05:04;;;;;;;3.67;3.38;;;12.80;99.90;;;;;;5076203;28;20075;-59
2023/05/10 00:07:30;;;;;;;4.57;3.55;;;12.80;99.90;;;;;;5057241;28;20046;-59
2023/05/10 00:09:56;;;;;;;4.05;3.65;;;12.80;99.90;;;;;;5075823;28;20030;-58
2023/05/10 00:12:22;;;;;;;7.20;3.65;;;12.80;99.90;;;;;;5076025;28;20711;-60
2023/05/10 00:14:47;;;;;;;5.15;2.92;;;12.80;99.90;;;;;;5074051;28;20043;-58
2023/05/10 00:17:13;;;;;;;3.65;3.22;;;12.80;99.90;;;;;;5073957;28;20067;-58
2023/05/10 00:19:38;;;;;;;6.07;3.47;;;12.80;99.90;;;;;;5076954;28;20027;-59
2023/05/10 00:22:04;;;;;;;8.85;3.47;;;12.80;99.90;;;;;;5074807;28;20063;-59
2023/05/10 00:24:30;;;;;;;3.80;3.45;;;12.80;99.90;;;;;;5077511;28;20036;-59
2023/05/10 00:26:55;;;;;;;4.40;3.13;;;12.80;99.90;;;;;;5075281;28;20036;-60
2023/05/10 00:29:21;;;;;;;3.85;3.45;;;12.80;99.90;;;;;;5074315;28;20512;-60
2023/05/10 00:31:47;;;;;;;8.30;4.07;;;12.80;99.90;;;;;;5075676;28;20110;-60
2023/05/10 00:34:12;;;;;;;5.78;3.30;;;12.80;99.90;;;;;;5073016;28;20074;-59
2023/05/10 00:36:38;;;;;;;4.13;3.28;;;12.80;99.90;;;;;;5075778;28;20036;-59
2023/05/10 00:39:04;;;;;;;4.38;3.63;;;12.80;99.90;;;;;;5076537;28;20036;-59
2023/05/10 00:41:32;;;;;;;4.20;3.80;;;12.80;99.90;;;;;;5076716;28;20036;-59
2023/05/10 00:43:58;;;;;;;3.00;2.70;;;12.80;99.90;;;;;;5079408;28;20028;-59
2023/05/10 00:46:24;;;;;;;4.18;3.28;;;12.80;99.90;;;;;;5078355;28;20082;-60
2023/05/10 00:48:50;;;;;;;6.53;3.78;;;12.80;99.90;;;;;;5079867;28;20163;-60
2023/05/10 00:51:16;;;;;;;3.67;3.20;;;12.80;99.90;;;;;;5080338;28;20116;-59
2023/05/10 00:53:42;;;;;;;4.43;3.50;;;12.70;99.90;;;;;;5078107;28;20481;-58
2023/05/10 00:56:08;;;;;;;3.30;3.00;;;12.70;99.90;;;;;;5081426;28;20066;-59
2023/05/10 00:58:33;;;;;;;4.25;3.83;;;12.70;99.90;;;;;;5077729;28;20023;-58
2023/05/10 01:01:00;;;;;;;4.18;3.78;;;12.60;99.90;;;;;;5079267;28;20044;-60
2023/05/10 01:03:26;;;;;;;3.72;3.20;;;12.60;99.90;;;;;;5078090;28;20452;-59
2023/05/10 01:05:52;;;;;;;3.20;2.90;;;12.50;99.90;;;;;;5082707;28;20033;-59
2023/05/10 01:08:18;;;;;;;4.97;3.83;;;12.40;99.90;;;;;;5079988;28;20118;-58
2023/05/10 01:10:44;;;;;;;4.85;3.80;;;12.30;99.90;;;;;;5077926;28;20094;-60
2023/05/10 01:13:10;;;;;;;8.02;3.33;;;12.20;99.90;;;;;;5078720;28;20038;-58
2023/05/10 01:15:36;;;;;;;8.73;3.88;;;12.10;99.90;;;;;;5077540;28;20475;-59
2023/05/10 01:18:02;;;;;;;3.50;3.17;;;12.10;99.90;;;;;;5063008;28;20025;-60
2023/05/10 01:20:35;;;;;;;4.90;3.60;;;12.00;99.90;;;;;;5082230;28;20115;-59
2023/05/10 01:23:03;;;;;;;4.63;3.70;;;12.10;99.90;;;;;;5077832;28;20020;-59
2023/05/10 01:26:01;;;;;;;3.85;3.55;;;12.10;99.90;;;;;;5078551;28;20078;-59
2023/05/10 01:28:50;;;;;;;4.72;3.70;;;12.20;99.90;;;;;;5079614;28;20033;-59
2023/05/10 01:31:34;;;;;;;4.68;3.47;;;12.30;99.90;;;;;;5078686;28;20064;-58
2023/05/10 01:34:07;;;;;;;3.47;3.17;;;12.40;99.90;;;;;;5048725;28;20064;-59
2023/05/10 01:36:45;;;;;;;3.85;3.50;;;12.40;99.90;;;;;;5076193;28;20039;-60
2023/05/10 01:39:14;;;;;;;4.72;4.07;;;12.50;99.90;;;;;;5077378;28;20033;-59
2023/05/10 01:41:58;;;;;;;4.10;3.80;;;12.50;99.90;;;;;;5074067;28;20032;-59
2023/05/10 01:44:34;;;;;;;7.78;3.47;;;12.60;99.90;;;;;;5078386;28;20071;-59
2023/05/10 01:47:06;;;;;;;3.63;3.30;;;12.60;99.90;;;;;;5078861;28;20052;-59
2023/05/10 01:49:36;;;;;;;5.03;3.58;;;12.60;99.90;;;;;;5061224;28;20081;-59
2023/05/10 01:52:15;;;;;;;8.95;3.53;;;12.60;99.90;;;;;;5065199;28;20015;-60
2023/05/10 01:54:47;;;;;;;3.72;3.42;;;12.60;99.90;;;;;;5074930;28;20029;-58
2023/05/10 01:57:15;;;;;;;3.47;3.17;;;12.60;99.90;;;;;;5077206;28;20060;-60
2023/05/10 01:59:45;;;;;;;4.22;2.85;;;12.60;99.90;;;;;;5077835;28;21194;-59
2023/05/10 02:02:12;;;;;;;5.28;3.38;;;12.60;99.90;;;;;;5076470;28;20104;-60
2023/05/10 02:04:39;;;;;;;3.50;3.20;;;12.50;99.90;;;;;;5077034;28;20035;-59
2023/05/10 02:07:07;;;;;;;4.90;3.55;;;12.50;99.90;;;;;;5078547;28;20111;-59
2023/05/10 02:09:36;;;;;;;5.07;3.50;;;12.40;99.90;;;;;;5076759;28;20028;-59
2023/05/10 02:12:04;;;;;;;4.68;3.38;;;12.30;99.90;;;;;;5067127;28;20029;-59
2023/05/10 02:14:36;;;;;;;3.95;3.65;;;12.30;99.90;;;;;;5077790;28;20047;-59
2023/05/10 02:17:04;;;;;;;4.43;3.75;;;12.20;99.90;;;;;;5075806;28;20032;-60
2023/05/10 02:19:32;;;;;;;5.30;3.92;;;12.20;99.90;;;;;;5079665;28;20032;-59
2023/05/10 02:22:00;;;;;;;3.92;3.63;;;12.20;99.90;;;;;;5077291;28;20423;-59
2023/05/10 02:24:27;;;;;;;4.68;3.53;;;12.20;99.90;;;;;;5079918;28;20085;-60
2023/05/10 02:26:55;;;;;;;5.22;3.67;;;12.20;99.90;;;;;;5079348;28;20029;-59
2023/05/10 02:29:26;;;;;;;4.82;3.25;;;12.20;99.90;;;;;;5078023;28;20028;-59
2023/05/10 02:31:54;;;;;;;5.35;3.35;;;12.20;99.90;;;;;;5077191;28;20404;-59
2023/05/10 02:34:22;;;;;;;4.35;3.40;;;12.20;99.90;;;;;;5076931;28;20108;-59
2023/05/10 02:36:48;;;;;;;5.88;3.45;;;12.30;99.90;;;;;;5076850;28;20090;-59
2023/05/10 02:39:15;;;;;;;10.85;3.75;;;12.30;99.90;;;;;;5079804;28;20035;-58
2023/05/10 02:41:42;;;;;;;8.23;3.97;;;12.30;99.90;;;;;;5062956;28;20024;-59
2023/05/10 02:44:09;;;;;;;4.32;3.72;;;12.30;99.90;;;;;;5076723;28;20032;-59
2023/05/10 02:46:36;;;;;;;4.43;3.63;;;12.30;99.90;;;;;;5078038;28;20029;-59
2023/05/10 02:49:02;;;;;;;3.78;3.45;;;12.30;99.90;;;;;;5078259;28;20016;-59
2023/05/10 02:51:32;;;;;;;8.15;3.80;;;12.30;99.90;;;;;;5075969;28;20036;-59
2023/05/10 02:53:58;;;;;;;3.63;2.90;;;12.20;99.90;;;;;;5079012;28;20025;-58
2023/05/10 02:56:29;;;;;;;4.80;3.17;;;12.30;99.90;;;;;;5076955;28;20113;-59
2023/05/10 02:58:55;;;;;;;4.03;3.63;;;12.30;99.90;;;;;;5077574;28;20158;-59
2023/05/10 03:01:21;;;;;;;5.82;3.90;;;12.20;99.90;;;;;;5077676;28;20040;-59
2023/05/10 03:03:46;;;;;;;6.05;3.33;;;12.20;99.90;;;;;;5077706;28;20032;-59
2023/05/10 03:06:12;;;;;;;4.82;3.28;;;12.20;99.90;;;;;;5074766;28;20377;-58
2023/05/10 03:08:38;;;;;;;5.28;3.97;;;12.20;99.90;;;;;;5076546;28;20154;-58
2023/05/10 03:11:17;;;;;;;4.57;3.67;;;12.20;99.90;;;;;;5078399;28;20032;-60
2023/05/10 03:14:05;;;;;;;4.30;3.85;;;12.20;99.90;;;;;;5077182;28;20048;-59
2023/05/10 03:16:52;;;;;;;6.20;3.67;;;12.20;99.90;;;;;;5075344;28;20088;-58
2023/05/10 03:19:26;;;;;;;7.38;3.63;;;12.20;99.90;;;;;;5075601;28;20016;-60
2023/05/10 03:21:53;;;;;;;4.20;3.80;;;12.20;99.90;;;;;;5075978;28;20077;-59
2023/05/10 03:24:22;;;;;;;5.15;3.80;;;12.20;99.90;;;;;;5075871;28;20029;-59
2023/05/10 03:26:50;;;;;;;7.13;4.05;;;12.20;99.90;;;;;;5074233;28;20041;-59
2023/05/10 03:29:17;;;;;;;10.05;4.22;;;12.10;99.90;;;;;;5073474;28;20056;-58
2023/05/10 03:31:43;;;;;;;5.20;3.40;;;12.10;99.90;;;;;;5072430;28;20033;-59
2023/05/10 03:34:08;;;;;;;5.28;4.78;;;12.00;99.90;;;;;;5078031;28;20023;-59
2023/05/10 03:36:34;;;;;;;6.35;4.82;;;12.00;99.90;;;;;;5076943;28;20056;-59
2023/05/10 03:39:00;;;;;;;5.25;3.78;;;12.00;99.90;;;;;;5074869;28;20032;-59
2023/05/10 03:41:25;;;;;;;5.47;4.10;;;12.00;99.90;;;;;;5076657;28;20106;-60
2023/05/10 03:43:51;;;;;;;5.18;4.75;;;12.00;99.90;;;;;;5077277;28;20102;-58
2023/05/10 03:46:17;;;;;;;5.00;4.53;;;11.90;99.90;;;;;;5075553;28;20081;-59
2023/05/10 03:48:43;;;;;;;7.45;5.13;;;11.90;99.90;;;;;;5081615;28;20403;-58
2023/05/10 03:51:08;;;;;;;8.30;5.07;;;11.90;99.90;;;;;;5072586;28;20029;-58
2023/05/10 03:53:34;;;;;;;7.93;5.10;;;11.80;99.90;;;;;;5077299;28;20385;-58
2023/05/10 03:56:00;;;;;;;8.10;4.70;;;11.70;99.90;;;;;;5077122;28;20069;-59
2023/05/10 03:58:25;;;;;;;5.25;4.85;;;11.60;99.90;;;;;;5074022;28;20032;-59
2023/05/10 04:00:52;;;;;;;10.23;5.03;;;11.50;99.90;;;;;;5077376;28;20036;-59
2023/05/10 04:03:18;;;;;;;5.82;5.03;;;11.50;99.90;;;;;;5077458;28;20170;-60
2023/05/10 04:05:43;;;;;;;7.15;5.28;;;11.50;99.90;;;;;;5077538;28;20139;-59
2023/05/10 04:08:09;;;;;;;6.32;5.25;;;11.40;99.90;;;;;;5075189;28;20173;-58
2023/05/10 04:10:35;;;;;;;5.57;5.07;;;11.40;99.90;;;;;;5076414;28;20033;-59
2023/05/10 04:13:00;;;;;;;5.43;4.93;;;11.40;99.90;;;;;;5074763;28;20024;-59
2023/05/10 04:15:26;;;;;;;4.95;4.10;;;11.40;99.90;;;;;;5078010;28;20075;-60
2023/05/10 04:17:51;;;;;;;5.85;4.75;;;11.30;99.90;;;;;;5076567;28;20117;-58
2023/05/10 04:20:17;;;;;;;10.75;5.68;;;11.30;99.90;;;;;;5079811;28;20055;-59
2023/05/10 04:22:43;;;;;;;9.20;6.47;;;11.30;99.90;;;;;;5064479;28;20586;-59
2023/05/10 04:25:09;;;;;;;12.30;5.95;;;11.20;99.90;;;;;;5081586;28;20028;-58
2023/05/10 04:27:34;;;;;;;8.05;6.65;;;11.10;99.90;;;;;;5081333;28;20075;-59
2023/05/10 04:30:00;;;;;;;8.52;7.82;;;11.00;99.90;;;;;;5078487;28;20043;-60
2023/05/10 04:32:26;;;;;;;8.65;7.75;;;10.90;99.90;;;;;;5079434;28;20032;-60
2023/05/10 04:34:51;;;;;;;9.63;7.28;;;10.80;99.90;;;;;;5077582;28;20037;-60
2023/05/10 04:37:17;;;;;;;7.57;6.97;;;10.70;99.90;;;;;;5080332;28;20440;-59
2023/05/10 04:39:43;;;;;;;8.00;7.20;;;10.70;99.90;;;;;;5067722;28;20059;-60
2023/05/10 04:42:09;;;;;;;9.45;8.07;;;10.60;99.90;;;;;;5076009;28;20048;-60
2023/05/10 04:44:35;;;;;;;10.52;8.30;;;10.70;99.90;;;;;;5079049;28;20127;-60
2023/05/10 04:47:02;;;;;;;9.27;8.40;;;10.70;99.90;;;;;;5079383;28;20024;-61
2023/05/10 04:49:28;;;;;;;7.95;7.28;;;10.70;99.90;;;;;;5077990;28;20403;-60
2023/05/10 04:51:53;;;;;;;8.57;7.70;;;10.70;99.90;;;;;;5078818;28;20058;-60
2023/05/10 04:54:19;;;;;;;11.82;7.00;;;10.60;99.90;;;;;;5081633;28;20119;-60
2023/05/10 04:56:45;;;;;;;8.85;8.05;;;10.50;99.90;;;;;;5078342;28;20028;-60
2023/05/10 04:59:10;;;;;;;8.68;7.95;;;10.50;99.90;;;;;;5078802;28;20035;-60
2023/05/10 05:01:36;;;;;;;13.68;9.02;;;10.60;99.90;;;;;;5052938;28;20119;-60
2023/05/10 05:04:02;;;;;;;11.73;9.93;;;10.50;99.90;;;;;;5081842;28;20476;-60
2023/05/10 05:06:28;;;;;;;13.45;9.50;;;10.50;99.90;;;;;;5077860;28;20566;-60
2023/05/10 05:08:53;;;;;;;10.85;9.85;;;10.50;99.90;;;;;;5078774;28;20120;-60
2023/05/10 05:11:19;;;;;;;10.90;9.82;;;10.60;99.90;;;;;;5079904;28;20081;-60
2023/05/10 05:13:45;;;;;;;9.35;8.55;;;10.60;99.90;;;;;;5077419;28;20485;-58
2023/05/10 05:16:11;;;;;;;10.73;9.73;;;10.50;99.90;;;;;;5080166;28;20029;-58
2023/05/10 05:18:36;;;;;;;9.65;8.75;;;10.50;99.90;;;;;;5079267;28;20034;-57
2023/05/10 05:21:02;;;;;;;9.68;8.77;;;10.40;99.90;;;;;;5081331;28;20025;-58
2023/05/10 05:23:28;;;;;;;11.35;10.27;;;10.40;99.90;;;;;;5082074;28;20063;-58
2023/05/10 05:25:54;;;;;;;12.55;9.73;;;10.40;99.90;;;;;;5081891;28;20025;-58
2023/05/10 05:28:20;;;;;;;10.75;9.77;;;10.40;99.90;;;;;;5081278;28;20043;-58
2023/05/10 05:30:46;;;;;;;10.95;9.95;;;10.40;99.90;;;;;;5081929;28;20038;-59
2023/05/10 05:33:13;;;;;;;12.65;11.25;;;10.40;99.90;;;;;;5079719;28;20036;-61
2023/05/10 05:35:39;;;;;;;12.00;10.80;;;10.40;99.90;;;;;;5081058;28;20519;-60
2023/05/10 05:38:05;;;;;;;12.35;10.60;;;10.40;99.90;;;;;;5082097;28;20024;-60
2023/05/10 05:40:31;;;;;;;12.20;10.88;;;10.50;99.90;;;;;;5078920;28;20024;-61
2023/05/10 05:42:57;;;;;;;13.85;12.45;;;10.50;99.90;;;;;;5083308;28;20020;-61
2023/05/10 05:45:22;;;;;;;13.95;12.32;;;10.50;99.90;;;;;;5083938;28;20095;-61
2023/05/10 05:47:48;;;;;;;12.88;11.25;;;10.50;99.90;;;;;;5084055;28;20028;-61
2023/05/10 05:50:14;;;;;;;12.57;11.40;;;10.50;99.90;;;;;;5080441;28;20505;-60
2023/05/10 05:52:40;;;;;;;13.88;12.55;;;10.40;99.90;;;;;;5082322;28;20028;-61
2023/05/10 05:55:05;;;;;;;14.95;12.98;;;10.40;99.90;;;;;;5084236;28;20024;-60
2023/05/10 05:57:31;;;;;;;13.48;12.18;;;10.30;99.90;;;;;;5081006;28;20055;-60
2023/05/10 05:59:57;;;;;;;14.75;12.30;;;10.30;99.90;;;;;;5078400;28;20107;-61
2023/05/10 06:02:22;;;;;;;14.20;13.00;;;10.30;99.90;;;;;;5082846;28;20032;-60
2023/05/10 06:04:48;;;;;;;15.23;13.70;;;10.20;99.90;;;;;;5081149;28;20031;-59
2023/05/10 06:07:13;;;;;;;21.05;13.85;;;10.30;99.90;;;;;;5080322;28;20535;-60
2023/05/10 06:09:39;;;;;;;23.33;16.23;;;10.30;99.90;;;;;;5079637;28;20036;-60
2023/05/10 06:12:05;;;;;;;15.52;13.52;;;10.40;99.90;;;;;;5078737;28;20058;-60
2023/05/10 06:14:30;;;;;;;16.63;13.23;;;10.40;99.90;;;;;;5081061;28;20032;-60
2023/05/10 06:16:56;;;;;;;14.32;12.75;;;10.30;99.90;;;;;;5079781;28;20051;-60
2023/05/10 06:19:22;;;;;;;15.23;13.65;;;10.40;99.90;;;;;;5069064;28;20080;-59
2023/05/10 06:21:47;;;;;;;15.48;12.82;;;10.30;99.90;;;;;;5079965;28;20115;-60
2023/05/10 06:24:13;;;;;;;14.93;13.45;;;10.40;99.90;;;;;;5079143;28;20036;-60
2023/05/10 06:26:38;;;;;;;16.77;13.77;;;10.50;99.90;;;;;;5081241;28;20039;-59
2023/05/10 06:29:04;;;;;;;35.97;14.00;;;10.60;99.90;;;;;;5079894;28;20135;-60
2023/05/10 06:31:30;;;;;;;13.88;12.57;;;10.70;99.90;;;;;;5079920;28;20077;-60
2023/05/10 06:33:55;;;;;;;14.77;13.23;;;10.80;99.90;;;;;;5078562;28;20115;-61
2023/05/10 06:36:24;;;;;;;20.77;14.02;;;10.90;99.90;;;;;;5080508;28;20072;-60
2023/05/10 06:38:51;;;;;;;13.48;12.10;;;11.00;99.90;;;;;;5076912;28;20028;-60
2023/05/10 06:41:16;;;;;;;17.08;11.55;;;11.10;99.90;;;;;;5083525;28;20028;-60
2023/05/10 06:43:43;;;;;;;24.27;12.48;;;11.20;99.90;;;;;;5082939;28;20135;-60
2023/05/10 06:46:08;;;;;;;16.65;11.35;;;11.20;99.90;;;;;;5082367;28;20012;-59
2023/05/10 06:48:34;;;;;;;12.13;11.10;;;11.30;99.90;;;;;;5082895;28;20043;-59
2023/05/10 06:51:00;;;;;;;15.73;11.07;;;11.30;99.90;;;;;;5076619;28;20044;-59
2023/05/10 06:53:25;;;;;;;12.93;10.98;;;11.30;99.90;;;;;;5078289;28;20035;-60
2023/05/10 06:55:51;;;;;;;11.77;10.68;;;11.30;99.90;;;;;;5079145;28;20082;-60
2023/05/10 06:58:16;;;;;;;11.55;10.65;;;11.40;99.90;;;;;;5079139;28;20055;-60
2023/05/10 07:00:43;;;;;;;11.25;10.20;;;11.40;99.90;;;;;;5078631;28;20491;-60
2023/05/10 07:03:10;;;;;;;15.80;10.45;;;11.40;99.90;;;;;;5077624;28;20028;-59
2023/05/10 07:05:36;;;;;;;16.77;11.88;;;11.40;99.90;;;;;;5076994;28;20020;-59
2023/05/10 07:08:01;;;;;;;13.32;11.93;;;11.40;99.90;;;;;;5077117;28;20090;-59
2023/05/10 07:10:27;;;;;;;19.67;12.63;;;11.60;99.90;;;;;;5077808;28;20020;-60
2023/05/10 07:12:53;;;;;;;13.32;12.13;;;11.70;99.90;;;;;;5074201;28;20107;-61
2023/05/10 07:15:18;;;;;;;15.68;12.40;;;11.80;99.90;;;;;;5079784;28;20040;-60
2023/05/10 07:17:45;;;;;;;16.45;12.75;;;11.90;99.90;;;;;;5076741;28;20489;-61
2023/05/10 07:20:11;;;;;;;15.70;12.82;;;11.90;99.90;;;;;;5075822;28;20813;-60
2023/05/10 07:22:36;;;;;;;12.30;11.07;;;12.00;99.90;;;;;;5078146;28;20086;-60
2023/05/10 07:25:02;;;;;;;12.15;11.15;;;12.10;99.90;;;;;;5076277;28;20013;-61
2023/05/10 07:27:28;;;;;;;11.55;10.63;;;12.10;99.90;;;;;;5077179;28;20454;-61
2023/05/10 07:29:54;;;;;;;12.38;10.27;;;12.30;99.90;;;;;;5063547;28;20313;-62
2023/05/10 07:32:20;;;;;;;10.48;9.57;;;12.40;99.90;;;;;;5077006;28;20031;-61
2023/05/10 07:34:46;;;;;;;18.60;10.10;;;12.70;99.90;;;;;;5077432;28;20016;-61
2023/05/10 07:37:11;;;;;;;9.65;8.85;;;13.10;99.90;;;;;;5074670;28;20093;-60
2023/05/10 07:39:37;;;;;;;8.60;8.00;;;13.60;99.90;;;;;;5074611;28;20036;-61
2023/05/10 07:42:03;;;;;;;8.75;8.00;;;14.10;99.90;;;;;;5077900;28;20511;-60
2023/05/10 07:44:29;;;;;;;8.02;6.28;;;14.40;99.90;;;;;;5067962;28;20024;-60
2023/05/10 07:46:55;;;;;;;5.93;5.30;;;14.70;99.90;;;;;;5078112;28;20032;-58
2023/05/10 07:49:23;;;;;;;11.40;5.53;;;14.80;99.90;;;;;;5081157;28;20473;-58
2023/05/10 07:51:49;;;;;;;5.97;5.47;;;14.70;99.90;;;;;;5079568;28;20515;-58
2023/05/10 07:54:15;;;;;;;5.45;5.03;;;14.70;99.90;;;;;;5082773;28;20064;-60
2023/05/10 07:56:45;;;;;;;5.63;5.22;;;14.60;99.90;;;;;;5081078;28;20472;-59
2023/05/10 07:59:15;;;;;;;4.63;4.25;;;14.50;99.90;;;;;;5082040;28;20060;-60
2023/05/10 08:01:41;;;;;;;4.72;4.32;;;14.40;99.90;;;;;;5080694;28;20023;-58
2023/05/10 08:04:07;;;;;;;4.55;4.13;;;14.20;99.90;;;;;;5070515;28;20016;-58
2023/05/10 08:06:32;;;;;;;5.03;4.47;;;14.10;99.90;;;;;;5064423;28;20116;-58
2023/05/10 08:08:58;;;;;;;5.55;5.03;;;13.90;99.90;;;;;;5083890;28;20120;-58
2023/05/10 08:11:24;;;;;;;6.13;5.50;;;13.90;99.90;;;;;;5078233;28;20067;-59
2023/05/10 08:13:50;;;;;;;6.78;6.15;;;13.90;99.90;;;;;;5078761;28;20493;-59
2023/05/10 08:16:17;;;;;;;6.65;5.35;;;13.90;99.90;;;;;;5079887;28;20024;-59
2023/05/10 08:18:44;;;;;;;4.78;4.38;;;14.00;99.90;;;;;;5080635;28;20060;-58
2023/05/10 08:21:11;;;;;;;5.35;4.85;;;14.00;99.90;;;;;;5077797;28;20078;-59
2023/05/10 08:23:37;;;;;;;4.97;4.57;;;14.20;99.90;;;;;;5077616;28;20036;-60
2023/05/10 08:26:03;;;;;;;4.82;4.20;;;14.50;99.90;;;;;;5079139;28;20448;-60
2023/05/10 08:28:28;;;;;;;5.40;3.78;;;14.70;99.90;;;;;;5081341;28;20049;-60
2023/05/10 08:30:54;;;;;;;4.32;3.92;;;15.00;99.90;;;;;;5065662;28;20059;-62
2023/05/10 08:33:19;;;;;;;3.90;3.47;;;15.30;99.90;;;;;;5080711;28;20029;-60
2023/05/10 08:35:45;;;;;;;6.28;3.88;;;15.60;99.90;;;;;;5078312;28;20507;-59
2023/05/10 08:38:12;;;;;;;4.28;3.72;;;15.70;99.90;;;;;;5083240;28;20040;-59
2023/05/10 08:40:39;;;;;;;5.45;3.05;;;15.90;99.90;;;;;;5081481;28;20035;-59
2023/05/10 08:43:07;;;;;;;3.08;2.80;;;15.90;99.90;;;;;;5077094;28;20082;-59
2023/05/10 08:45:37;;;;;;;4.00;3.10;;;15.80;99.90;;;;;;5081475;28;20138;-59
2023/05/10 08:48:06;;;;;;;3.65;3.10;;;15.40;99.90;;;;;;5083011;28;20029;-55
2023/05/10 08:50:37;;;;;;;5.82;3.85;;;15.00;99.90;;;;;;5043453;28;20032;-56
2023/05/10 08:53:09;;;;;;;5.45;4.65;;;14.70;99.90;;;;;;5074671;28;20074;-56
2023/05/10 08:55:39;;;;;;;5.65;4.15;;;14.50;99.90;;;;;;5081309;28;20032;-57
2023/05/10 08:58:07;;;;;;;6.57;5.22;;;14.50;99.90;;;;;;5075054;28;20012;-60
2023/05/10 09:00:33;;;;;;;4.28;3.97;;;14.70;99.90;;;;;;5084107;28;20024;-60
2023/05/10 09:03:01;;;;;;;4.20;3.80;;;15.00;99.90;;;;;;5064793;28;20135;-57
2023/05/10 09:05:28;;;;;;;3.05;2.78;;;15.30;99.90;;;;;;5065756;28;20039;-56
2023/05/10 09:07:55;;;;;;;2.13;2.03;;;15.50;99.90;;;;;;5067324;28;20017;-58
2023/05/10 09:10:26;;;;;;;2.00;1.70;;;15.70;99.90;;;;;;5087834;28;20024;-56
2023/05/10 09:12:53;;;;;;;;;;;15.80;99.90;;;;;;5076844;28;20444;-59
2023/05/10 09:15:19;;;;;;;1.67;1.58;;;16.00;99.90;;;;;;5078003;28;19915;-59
2023/05/10 09:17:46;;;;;;;0.98;0.93;;;16.10;99.90;;;;;;5078925;28;20047;-59
2023/05/10 09:20:12;;;;;;;0.80;0.80;;;16.30;99.90;;;;;;5081519;28;20036;-59
2023/05/10 09:22:38;;;;;;;2.47;0.90;;;16.30;99.90;;;;;;5081413;28;20035;-59
2023/05/10 09:25:12;;;;;;;3.05;0.88;;;16.40;99.90;;;;;;5079966;28;20427;-59
2023/05/10 09:27:39;;;;;;;2.25;0.60;;;16.60;99.90;;;;;;5077484;28;20119;-60
2023/05/10 09:30:07;;;;;;;2.67;0.60;;;16.80;99.90;;;;;;5079292;28;20038;-60
2023/05/10 09:32:48;;;;;;;0.60;0.60;;;17.10;99.90;;;;;;5078438;28;20040;-59
2023/05/10 09:35:15;;;;;;;0.60;0.60;;;17.50;99.90;;;;;;5081075;28;20091;-59
2023/05/10 09:37:44;;;;;;;0.50;0.50;;;17.80;99.90;;;;;;5078294;28;20102;-59
2023/05/10 09:40:29;;;;;;;0.50;0.50;;;18.20;99.90;;;;;;5080953;28;20032;-60
2023/05/10 09:43:08;;;;;;;0.40;0.40;;;18.60;99.90;;;;;;5076872;28;20044;-59
2023/05/10 09:45:35;;;;;;;0.40;0.40;;;18.90;99.90;;;;;;5075935;28;20155;-59
2023/05/10 09:48:02;;;;;;;0.45;0.40;;;18.90;99.90;;;;;;5079170;28;20111;-60
2023/05/10 09:50:29;;;;;;;0.60;0.60;;;18.90;99.90;;;;;;5079042;28;20040;-60
2023/05/10 09:52:58;;;;;;;0.68;0.40;;;18.40;99.90;;;;;;5078852;28;20028;-59
2023/05/10 09:55:45;;;;;;;5.78;0.40;;;17.90;99.90;;;;;;5076650;28;20160;-59
2023/05/10 09:58:12;;;;;;;0.70;0.40;;;17.60;99.90;;;;;;5079104;28;20039;-59
2023/05/10 10:00:40;;;;;;;0.40;0.40;;;17.50;99.90;;;;;;5060313;28;20518;-59
2023/05/10 10:03:13;;;;;;;0.90;0.57;;;17.70;99.90;;;;;;5075612;28;20043;-59
2023/05/10 10:05:41;;;;;;;0.68;0.47;;;17.90;99.90;;;;;;5079025;28;20127;-59
2023/05/10 10:08:07;;;;;;;0.60;0.50;;;18.10;99.90;;;;;;5081659;28;20036;-59
2023/05/10 10:10:33;;;;;;;1.08;0.50;;;18.20;99.90;;;;;;5078804;28;20016;-59
2023/05/10 10:12:59;;;;;;;1.15;0.40;;;18.30;99.90;;;;;;5078102;28;20020;-59
2023/05/10 10:15:25;;;;;;;1.02;0.32;;;18.30;99.90;;;;;;5077838;28;20056;-59
2023/05/10 10:17:52;;;;;;;0.65;0.40;;;18.10;99.90;;;;;;5080833;28;20122;-59
2023/05/10 10:20:19;;;;;;;4.47;0.60;;;17.90;99.90;;;;;;5077614;28;20039;-59
2023/05/10 10:22:46;;;;;;;0.73;0.50;;;17.70;99.90;;;;;;5078896;28;20035;-59
2023/05/10 10:25:13;;;;;;;0.65;0.50;;;17.50;99.90;;;;;;5077696;28;20070;-60
2023/05/10 10:27:44;;;;;;;1.25;0.50;;;17.50;99.90;;;;;;5075921;28;20529;-59
2023/05/10 10:30:19;;;;;;;2.50;0.52;;;17.70;99.90;;;;;;5074619;28;20031;-59
2023/05/10 10:32:57;;;;;;;0.95;0.65;;;17.90;99.90;;;;;;5059725;28;20039;-59
2023/05/10 10:35:22;;;;;;;1.45;0.40;;;18.00;99.90;;;;;;5080532;28;20040;-59
2023/05/10 10:37:50;;;;;;;0.50;0.50;;;17.90;99.90;;;;;;5075770;28;20492;-59
2023/05/10 10:40:29;;;;;;;0.60;0.40;;;18.00;99.90;;;;;;5057230;28;20024;-59
2023/05/10 10:42:56;;;;;;;0.30;0.30;;;18.20;99.90;;;;;;5076291;28;20055;-59
2023/05/10 10:45:23;;;;;;;0.63;0.45;;;18.50;99.90;;;;;;5077372;28;20488;-59
2023/05/10 10:47:49;;;;;;;1.17;0.40;;;18.90;99.90;;;;;;5073101;28;20512;-58
2023/05/10 10:50:18;;;;;;;1.90;0.60;;;19.40;99.90;;;;;;5082934;28;20377;-58
2023/05/10 10:52:44;;;;;;;3.15;0.47;;;19.80;99.90;;;;;;5079721;28;20035;-59
2023/05/10 10:55:18;;;;;;;3.20;0.50;;;20.10;99.90;;;;;;5075836;28;20024;-59
2023/05/10 10:57:48;;;;;;;1.15;0.60;;;20.30;99.90;;;;;;5076712;28;20036;-59
2023/05/10 11:00:28;;;;;;;1.15;0.40;;;20.40;99.90;;;;;;5076110;28;20039;-59
2023/05/10 11:02:53;;;;;;;0.75;0.40;;;20.20;99.90;;;;;;5077219;28;20033;-58
2023/05/10 11:05:41;;;;;;;1.90;0.70;;;20.10;99.90;;;;;;5076785;28;20032;-58
2023/05/10 11:08:08;;;;;;;1.38;0.40;;;19.80;99.90;;;;;;5073602;28;20104;-59
2023/05/10 11:10:34;;;;;;;1.35;0.47;;;19.40;99.90;;;;;;5075645;28;20565;-58
2023/05/10 11:13:00;;;;;;;1.38;0.60;;;19.10;99.90;;;;;;5081074;28;20036;-58
2023/05/10 11:15:53;;;;;;;0.40;0.40;;;18.60;99.90;;;;;;5078608;28;20124;-58
2023/05/10 11:18:20;;;;;;;0.60;0.60;;;17.90;99.90;;;;;;5075725;28;20063;-58
2023/05/10 11:20:54;;;;;;;1.08;0.65;;;17.40;99.90;;;;;;5077863;28;20028;-58
2023/05/10 11:23:21;;;;;;;2.28;0.60;;;16.90;99.90;;;;;;5076307;28;20441;-58
2023/05/10 11:25:48;;;;;;;1.52;0.65;;;16.40;99.90;;;;;;5066087;28;20034;-57
2023/05/10 11:28:14;;;;;;;1.58;0.80;;;16.10;99.90;;;;;;5076945;28;20178;-59
2023/05/10 11:30:43;;;;;;;1.20;0.90;;;15.80;99.90;;;;;;5081533;28;20116;-59
2023/05/10 11:33:09;;;;;;;1.15;0.98;;;15.50;99.90;;;;;;5076903;28;20031;-58
2023/05/10 11:35:39;;;;;;;0.93;0.93;;;15.30;99.90;;;;;;5078532;28;20045;-58
2023/05/10 11:38:07;;;;;;;2.00;1.30;;;15.10;99.90;;;;;;5077340;28;20032;-59
2023/05/10 11:40:32;;;;;;;2.10;1.45;;;15.00;99.90;;;;;;5079086;28;20028;-59
2023/05/10 11:42:59;;;;;;;1.90;1.70;;;15.00;99.90;;;;;;5067437;28;20081;-59
2023/05/10 11:45:25;;;;;;;3.33;1.70;;;15.00;99.90;;;;;;5079507;28;20032;-59
2023/05/10 11:47:51;;;;;;;1.92;1.50;;;15.00;99.90;;;;;;5078467;28;20024;-58
2023/05/10 11:50:17;;;;;;;1.70;1.60;;;15.00;99.90;;;;;;5079670;28;20043;-59
2023/05/10 11:52:43;;;;;;;3.72;1.40;;;15.00;99.90;;;;;;5079477;28;20029;-59
2023/05/10 11:55:09;;;;;;;1.33;1.25;;;15.00;99.90;;;;;;5081856;28;20042;-59
2023/05/10 11:57:35;;;;;;;2.13;1.25;;;15.10;99.90;;;;;;5080072;28;20040;-58
2023/05/10 12:00:03;;;;;;;1.58;1.42;;;15.10;99.90;;;;;;5078036;28;20115;-59
2023/05/10 12:02:29;;;;;;;1.00;1.00;;;15.10;99.90;;;;;;5077844;28;20040;-59
2023/05/10 12:04:55;;;;;;;1.45;1.10;;;15.30;99.90;;;;;;5076968;28;20044;-59
2023/05/10 12:07:21;;;;;;;2.72;1.38;;;15.40;99.90;;;;;;5080543;28;20773;-59
2023/05/10 12:10:06;;;;;;;4.03;1.10;;;15.50;99.90;;;;;;5077978;28;20040;-59
2023/05/10 12:12:52;;;;;;;1.00;1.00;;;15.80;99.90;;;;;;5075995;28;20071;-59
2023/05/10 12:15:23;;;;;;;4.03;0.90;;;16.10;99.90;;;;;;5073246;28;20036;-59
2023/05/10 12:17:49;;;;;;;;;;;16.40;99.90;;;;;;5073793;28;20033;-59
2023/05/10 12:20:23;;;;;;;2.05;0.90;;;16.70;99.90;;;;;;5076610;28;20002;-60
2023/05/10 12:22:53;;;;;;;0.90;0.90;;;17.20;99.90;;;;;;5073582;28;20479;-59
2023/05/10 12:25:20;;;;;;;0.77;0.70;;;17.70;99.90;;;;;;5073504;28;20098;-60
2023/05/10 12:27:56;;;;;;;0.80;0.80;;;18.10;99.90;;;;;;5078191;28;20511;-60
2023/05/10 12:30:26;;;;;;;2.10;0.80;;;18.50;99.90;;;;;;5051289;28;20032;-59
2023/05/10 12:32:52;;;;;;;1.35;0.75;;;18.80;99.90;;;;;;5074777;28;20020;-59
2023/05/10 12:35:21;;;;;;;2.08;0.80;;;19.00;99.90;;;;;;5077378;28;20123;-59
2023/05/10 12:37:47;;;;;;;0.85;0.82;;;19.20;99.90;;;;;;5076804;28;20032;-60
2023/05/10 12:40:13;;;;;;;1.73;0.75;;;19.20;99.90;;;;;;5080821;28;20028;-59
2023/05/10 12:42:39;;;;;;;2.35;0.90;;;19.10;99.90;;;;;;5080382;28;20037;-59
2023/05/10 12:45:06;;;;;;;1.25;0.77;;;19.20;99.90;;;;;;5082383;28;20064;-60